Time;durP1;ratioP1;P1;durP2;ratioP2;P2;SDS_P1;SDS_P2;PMS_P1;PMS_P2;Temp;Humidity;BMP_temperature;BMP_pressure;BME280_temperature;BME280_humidity;BME280_pressure;Samples;Min_cycle;Max_cycle;Signal;HPM_P1;HPM_P2
2021/06/14 00:01:16;;;;;;;;;;;;;;;20.51;45.55;102069.09;2063151;28;4061;-35
2021/06/14 00:02:43;;;;;;;;;;;;;;;20.62;45.32;102068.59;2069994;28;3997;-35
2021/06/14 00:04:10;;;;;;;;;;;;;;;20.71;45.19;102062.13;2069741;28;4252;-35
2021/06/14 00:05:36;;;;;;;;;;;;;;;20.76;45.14;102068.53;2068974;28;4065;-35
2021/06/14 00:07:02;;;;;;;;;;;;;;;20.80;45.07;102068.72;2066787;28;4172;-35
2021/06/14 00:08:28;;;;;;;;;;;;;;;20.83;45.16;102065.25;2068297;28;3888;-35
2021/06/14 00:09:55;;;;;;;;;;;;;;;20.84;45.15;102064.06;2068656;28;3897;-35
2021/06/14 00:11:22;;;;;;;;;;;;;;;20.86;45.15;102068.28;2062949;28;4978;-35
2021/06/14 00:12:48;;;;;;;;;;;;;;;20.88;45.12;102063.09;2068811;28;3922;-35
2021/06/14 00:14:15;;;;;;;;;;;;;;;20.89;45.09;102067.63;2070797;28;4080;-35
2021/06/14 00:15:41;;;;;;;;;;;;;;;20.92;45.08;102066.13;2065508;28;3832;-35
2021/06/14 00:17:07;;;;;;;;;;;;;;;20.93;45.04;102061.31;2068576;28;5050;-35
2021/06/14 00:18:34;;;;;;;;;;;;;;;20.95;45.06;102064.66;2065370;28;3921;-35
2021/06/14 00:20:01;;;;;;;;;;;;;;;20.96;45.03;102063.50;2069178;28;4105;-35
2021/06/14 00:21:27;;;;;;;;;;;;;;;20.97;45.01;102065.19;2069285;28;3959;-35
2021/06/14 00:22:54;;;;;;;;;;;;;;;20.98;45.06;102061.16;2065286;28;3904;-35
2021/06/14 00:24:20;;;;;;;;;;;;;;;20.99;45.09;102057.19;2065161;28;4053;-35
2021/06/14 00:25:47;;;;;;;;;;;;;;;21.00;44.96;102061.69;2065799;28;3833;-35
2021/06/14 00:27:13;;;;;;;;;;;;;;;21.01;44.96;102063.38;2065222;28;4114;-35
2021/06/14 00:28:40;;;;;;;;;;;;;;;21.02;45.08;102060.22;2068623;28;4062;-35
2021/06/14 00:30:06;;;;;;;;;;;;;;;21.03;45.14;102070.41;2068132;28;4044;-35
2021/06/14 00:31:33;;;;;;;;;;;;;;;21.04;45.01;102066.44;2069338;28;3874;-35
2021/06/14 00:33:00;;;;;;;;;;;;;;;21.05;44.83;102064.41;2069245;28;4052;-35
2021/06/14 00:34:27;;;;;;;;;;;;;;;21.06;44.99;102066.09;2067093;28;4097;-35
2021/06/14 00:35:54;;;;;;;;;;;;;;;21.06;44.96;102058.41;2068237;28;3920;-35
2021/06/14 00:37:20;;;;;;;;;;;;;;;21.08;45.06;102063.75;2062562;28;4104;-34
2021/06/14 00:38:46;;;;;;;;;;;;;;;21.08;45.11;102058.06;2068347;28;4153;-35
2021/06/14 00:40:12;;;;;;;;;;;;;;;21.10;45.13;102061.44;2069476;28;4053;-35
2021/06/14 00:41:39;;;;;;;;;;;;;;;21.10;44.93;102050.88;2069171;28;3911;-35
2021/06/14 00:43:06;;;;;;;;;;;;;;;21.11;45.07;102054.56;2069822;28;4034;-35
2021/06/14 00:44:32;;;;;;;;;;;;;;;21.13;45.03;102052.25;2069103;28;3894;-35
2021/06/14 00:45:59;;;;;;;;;;;;;;;21.13;45.08;102046.56;2069930;28;4027;-35
2021/06/14 00:47:26;;;;;;;;;;;;;;;21.08;44.90;102055.22;2069781;28;3895;-34
2021/06/14 00:48:52;;;;;;;;;;;;;;;21.04;44.73;102051.38;2069084;28;3955;-35
2021/06/14 00:50:18;;;;;;;;;;;;;;;21.00;44.71;102051.16;2067790;28;4071;-34
2021/06/14 00:51:44;;;;;;;;;;;;;;;20.97;44.67;102048.94;2068442;28;3939;-35
2021/06/14 00:53:11;;;;;;;;;;;;;;;20.96;44.67;102052.13;2069855;28;4209;-35
2021/06/14 00:54:38;;;;;;;;;;;;;;;20.94;44.58;102055.28;2071529;28;3926;-35
2021/06/14 00:56:05;;;;;;;;;;;;;;;20.93;44.43;102053.63;2061951;28;4229;-35
2021/06/14 00:57:31;;;;;;;;;;;;;;;20.91;44.37;102056.78;2066496;28;3915;-35
2021/06/14 00:58:58;;;;;;;;;;;;;;;20.89;44.27;102059.09;2069231;28;4249;-36
2021/06/14 01:00:24;;;;;;;;;;;;;;;20.89;44.20;102055.41;2071248;28;4135;-37
2021/06/14 01:01:51;;;;;;;;;;;;;;;20.87;44.33;102057.75;2071931;28;3767;-34
2021/06/14 01:03:18;;;;;;;;;;;;;;;20.86;44.12;102064.59;2071263;28;4023;-35
2021/06/14 01:04:44;;;;;;;;;;;;;;;20.85;44.22;102052.38;2071557;28;4095;-35
2021/06/14 01:06:10;;;;;;;;;;;;;;;20.85;44.09;102052.38;2064703;28;4070;-35
2021/06/14 01:07:37;;;;;;;;;;;;;;;20.83;43.94;102056.72;2066327;28;4065;-35
2021/06/14 01:09:04;;;;;;;;;;;;;;;20.81;44.02;102051.31;2062622;28;4053;-35
2021/06/14 01:10:31;;;;;;;;;;;;;;;20.80;43.94;102055.34;2064951;28;4061;-35
2021/06/14 01:11:58;;;;;;;;;;;;;;;20.79;43.89;102053.69;2070263;28;5513;-35
2021/06/14 01:13:25;;;;;;;;;;;;;;;20.79;43.86;102041.47;2070179;28;3897;-34
2021/06/14 01:14:51;;;;;;;;;;;;;;;20.78;43.87;102039.75;2071081;28;4069;-35
2021/06/14 01:16:17;;;;;;;;;;;;;;;20.77;44.04;102043.78;2063182;28;4090;-34
2021/06/14 01:17:43;;;;;;;;;;;;;;;20.76;43.89;102045.78;2063586;28;3835;-35
2021/06/14 01:19:11;;;;;;;;;;;;;;;20.75;43.93;102048.94;2077799;28;4080;-35
2021/06/14 01:20:38;;;;;;;;;;;;;;;20.74;43.94;102045.25;2070544;28;3931;-35
2021/06/14 01:22:05;;;;;;;;;;;;;;;20.74;43.89;102050.13;2069628;28;4088;-35
2021/06/14 01:23:32;;;;;;;;;;;;;;;20.73;43.93;102046.44;2058653;28;4106;-34
2021/06/14 01:24:59;;;;;;;;;;;;;;;20.72;43.76;102049.59;2068430;28;5036;-35
2021/06/14 01:26:25;;;;;;;;;;;;;;;20.71;43.96;102047.91;2070681;28;4080;-37
2021/06/14 01:27:52;;;;;;;;;;;;;;;20.71;43.90;102045.06;2070025;28;3772;-36
2021/06/14 01:29:19;;;;;;;;;;;;;;;20.69;43.90;102040.53;2069724;28;4069;-36
2021/06/14 01:30:57;;;;;;;;;;;;;;;20.69;43.80;102034.00;2067009;28;3816;-35
2021/06/14 01:32:24;;;;;;;;;;;;;;;20.68;43.84;102046.56;2070534;28;4020;-34
2021/06/14 01:33:50;;;;;;;;;;;;;;;20.66;43.89;102038.34;2071147;28;4048;-35
2021/06/14 01:35:17;;;;;;;;;;;;;;;20.65;43.86;102035.81;2071500;28;4046;-38
2021/06/14 01:36:43;;;;;;;;;;;;;;;20.66;43.87;102037.50;2071112;28;3835;-36
2021/06/14 01:38:10;;;;;;;;;;;;;;;20.63;43.72;102027.59;2069790;28;4190;-36
2021/06/14 01:39:37;;;;;;;;;;;;;;;20.61;43.82;102035.59;2064860;28;4056;-36
2021/06/14 01:41:03;;;;;;;;;;;;;;;20.62;43.71;102033.59;2070158;28;4046;-36
2021/06/14 01:42:30;;;;;;;;;;;;;;;20.61;43.58;102029.91;2070738;28;4047;-37
2021/06/14 01:43:58;;;;;;;;;;;;;;;20.61;43.69;102029.09;2069650;28;3949;-35
2021/06/14 01:45:25;;;;;;;;;;;;;;;20.60;43.65;102025.41;2069799;28;4107;-35
2021/06/14 01:46:52;;;;;;;;;;;;;;;20.58;43.48;102018.34;2070445;28;4046;-35
2021/06/14 01:48:19;;;;;;;;;;;;;;;20.58;43.37;102024.88;2070489;28;4066;-36
2021/06/14 01:49:45;;;;;;;;;;;;;;;20.58;43.40;102024.03;2071891;28;3874;-35
2021/06/14 01:51:12;;;;;;;;;;;;;;;20.56;43.54;102020.66;2071763;28;5093;-36
2021/06/14 01:52:38;;;;;;;;;;;;;;;20.55;43.50;102027.53;2064915;28;4075;-37
2021/06/14 01:54:06;;;;;;;;;;;;;;;20.55;43.34;102021.84;2068256;28;4844;-35
2021/06/14 01:55:33;;;;;;;;;;;;;;;20.53;43.48;102024.13;2067365;28;4030;-35
2021/06/14 01:57:00;;;;;;;;;;;;;;;20.53;43.33;102025.00;2069746;28;3876;-36
2021/06/14 01:58:26;;;;;;;;;;;;;;;20.52;43.27;102026.13;2064916;28;4072;-35
2021/06/14 01:59:53;;;;;;;;;;;;;;;20.51;43.45;102018.78;2069411;28;3901;-37
2021/06/14 02:01:19;;;;;;;;;;;;;;;20.51;43.33;102024.47;2070118;28;4038;-34
2021/06/14 02:02:45;;;;;;;;;;;;;;;20.50;43.45;102021.94;2071670;28;3966;-35
2021/06/14 02:04:11;;;;;;;;;;;;;;;20.50;43.44;102027.63;2069737;28;4063;-36
2021/06/14 02:05:37;;;;;;;;;;;;;;;20.47;43.34;102024.25;2066954;28;3917;-36
2021/06/14 02:07:04;;;;;;;;;;;;;;;20.47;43.44;102021.41;2069067;28;4020;-35
2021/06/14 02:08:30;;;;;;;;;;;;;;;20.46;43.17;102016.88;2071814;28;3915;-36
2021/06/14 02:09:56;;;;;;;;;;;;;;;20.45;43.36;102020.91;2070910;28;3870;-36
2021/06/14 02:11:22;;;;;;;;;;;;;;;20.45;43.29;102017.19;2077645;28;4221;-35
2021/06/14 02:12:49;;;;;;;;;;;;;;;20.44;43.17;102016.34;2072309;28;3869;-36
2021/06/14 02:14:15;;;;;;;;;;;;;;;20.43;43.19;102017.53;2069674;28;4048;-36
2021/06/14 02:15:42;;;;;;;;;;;;;;;20.42;43.22;102018.66;2069127;28;3892;-37
2021/06/14 02:17:09;;;;;;;;;;;;;;;20.41;43.33;102014.16;2069606;28;4055;-37
2021/06/14 02:18:36;;;;;;;;;;;;;;;20.41;43.34;102013.31;2066794;28;3898;-36
2021/06/14 02:20:02;;;;;;;;;;;;;;;20.40;43.32;102015.34;2070156;28;4226;-37
2021/06/14 02:21:29;;;;;;;;;;;;;;;20.40;43.41;102015.34;2070053;28;3871;-35
2021/06/14 02:22:56;;;;;;;;;;;;;;;20.39;43.17;102010.78;2071747;28;4103;-36
2021/06/14 02:24:22;;;;;;;;;;;;;;;20.39;43.28;102012.78;2070283;28;5142;-35
2021/06/14 02:25:49;;;;;;;;;;;;;;;20.38;43.28;102008.28;2070878;28;3871;-37
2021/06/14 02:27:15;;;;;;;;;;;;;;;20.36;43.22;102017.13;2070708;28;5040;-36
2021/06/14 02:28:42;;;;;;;;;;;;;;;20.36;43.27;102008.59;2070491;28;4073;-37
2021/06/14 02:30:09;;;;;;;;;;;;;;;20.35;43.20;102015.44;2070344;28;4061;-37
2021/06/14 02:31:36;;;;;;;;;;;;;;;20.34;43.14;102016.59;2070809;28;4039;-35
2021/06/14 02:33:03;;;;;;;;;;;;;;;20.32;43.06;102010.41;2070078;28;4532;-36
2021/06/14 02:34:29;;;;;;;;;;;;;;;20.31;43.03;102013.56;2069603;28;4087;-35
2021/06/14 02:35:56;;;;;;;;;;;;;;;20.31;42.96;102008.69;2071470;28;4024;-36
2021/06/14 02:37:22;;;;;;;;;;;;;;;20.30;43.11;102007.03;2071703;28;4221;-36
2021/06/14 02:38:49;;;;;;;;;;;;;;;20.30;43.23;102011.88;2070894;28;4100;-35
2021/06/14 02:40:16;;;;;;;;;;;;;;;20.29;43.16;102004.50;2071089;28;4090;-37
2021/06/14 02:41:42;;;;;;;;;;;;;;;20.26;43.34;102008.81;2070806;28;4110;-34
2021/06/14 02:43:08;;;;;;;;;;;;;;;20.27;43.16;102001.16;2069248;28;4214;-36
2021/06/14 02:44:35;;;;;;;;;;;;;;;20.26;43.26;102005.97;2070315;28;3914;-35
2021/06/14 02:46:01;;;;;;;;;;;;;;;20.25;43.13;101990.09;2069533;28;4073;-35
2021/06/14 02:47:28;;;;;;;;;;;;;;;20.24;43.12;101994.09;2069222;28;3898;-36
2021/06/14 02:48:55;;;;;;;;;;;;;;;20.23;43.16;101995.25;2067633;28;4054;-36
2021/06/14 02:50:22;;;;;;;;;;;;;;;20.23;43.08;101995.25;2068437;28;4083;-36
2021/06/14 02:51:48;;;;;;;;;;;;;;;20.22;43.27;101994.41;2070568;28;4092;-36
2021/06/14 02:53:15;;;;;;;;;;;;;;;20.21;43.20;101991.91;2069422;28;4082;-35
2021/06/14 02:54:42;;;;;;;;;;;;;;;20.20;43.29;101993.06;2069468;28;4073;-34
2021/06/14 02:56:09;;;;;;;;;;;;;;;20.19;43.20;101991.38;2069138;28;4056;-38
2021/06/14 02:57:36;;;;;;;;;;;;;;;20.17;43.28;101988.84;2070000;28;4074;-35
2021/06/14 02:59:03;;;;;;;;;;;;;;;20.17;43.26;101990.84;2069410;28;4069;-36
2021/06/14 03:00:30;;;;;;;;;;;;;;;20.16;43.16;101992.84;2070238;28;3913;-35
2021/06/14 03:01:57;;;;;;;;;;;;;;;20.15;43.07;101991.19;2070453;28;4040;-36
2021/06/14 03:03:24;;;;;;;;;;;;;;;20.13;43.19;101993.50;2070904;28;4073;-36
2021/06/14 03:04:51;;;;;;;;;;;;;;;20.12;43.06;101990.97;2069656;28;4126;-35
2021/06/14 03:06:20;;;;;;;;;;;;;;;20.11;43.29;101986.44;2068862;28;4225;-36
2021/06/14 03:07:47;;;;;;;;;;;;;;;20.10;43.29;101984.78;2069269;28;4047;-36
2021/06/14 03:09:13;;;;;;;;;;;;;;;20.09;43.05;101995.28;2070355;28;4010;-34
2021/06/14 03:10:40;;;;;;;;;;;;;;;20.09;43.16;101980.25;2069720;28;4250;-35
2021/06/14 03:12:06;;;;;;;;;;;;;;;20.08;43.15;101992.78;2070356;28;4029;-34
2021/06/14 03:13:33;;;;;;;;;;;;;;;20.07;43.26;101991.06;2070368;28;4132;-34
2021/06/14 03:14:59;;;;;;;;;;;;;;;20.08;43.27;101989.94;2069700;28;4200;-37
2021/06/14 03:16:26;;;;;;;;;;;;;;;20.06;43.35;101989.41;2070452;28;3897;-38
2021/06/14 03:17:53;;;;;;;;;;;;;;;20.06;43.35;101992.25;2062739;28;4774;-36
2021/06/14 03:19:20;;;;;;;;;;;;;;;20.05;43.59;101985.72;2064265;28;4223;-35
2021/06/14 03:20:46;;;;;;;;;;;;;;;20.04;43.46;101989.72;2069010;28;4096;-35
2021/06/14 03:22:12;;;;;;;;;;;;;;;20.03;43.35;101986.03;2068956;28;4235;-35
2021/06/14 03:23:38;;;;;;;;;;;;;;;20.02;43.34;101989.22;2070597;28;4285;-35
2021/06/14 03:25:05;;;;;;;;;;;;;;;20.01;43.34;101994.06;2067646;28;4055;-35
2021/06/14 03:26:32;;;;;;;;;;;;;;;20.00;43.41;101989.50;2062527;28;4080;-36
2021/06/14 03:27:58;;;;;;;;;;;;;;;20.00;43.43;101986.66;2067144;28;4192;-38
2021/06/14 03:29:25;;;;;;;;;;;;;;;19.98;43.50;101986.13;2067382;28;3916;-34
2021/06/14 03:30:51;;;;;;;;;;;;;;;19.97;43.35;101981.63;2067236;28;4029;-36
2021/06/14 03:32:17;;;;;;;;;;;;;;;19.96;43.46;101979.13;2061761;28;4259;-35
2021/06/14 03:33:43;;;;;;;;;;;;;;;19.95;43.31;101983.09;2065973;28;3881;-35
2021/06/14 03:35:10;;;;;;;;;;;;;;;19.94;43.37;101981.44;2061954;28;4192;-35
2021/06/14 03:36:39;;;;;;;;;;;;;;;19.93;43.47;101980.59;2070187;28;4085;-35
2021/06/14 03:38:05;;;;;;;;;;;;;;;19.92;43.55;101978.91;2071036;28;4258;-34
2021/06/14 03:39:32;;;;;;;;;;;;;;;19.91;43.76;101977.22;2070233;28;4284;-35
2021/06/14 03:40:59;;;;;;;;;;;;;;;19.89;43.77;101979.53;2069263;28;4253;-35
2021/06/14 03:42:30;;;;;;;;;;;;;;;19.89;43.89;101976.69;2071243;28;4039;-35
2021/06/14 03:43:57;;;;;;;;;;;;;;;19.89;43.86;101985.22;2070784;28;4223;-34
2021/06/14 03:45:24;;;;;;;;;;;;;;;19.89;43.88;101975.84;2069522;28;3903;-34
2021/06/14 03:46:51;;;;;;;;;;;;;;;19.88;43.88;101977.88;2070830;28;4025;-38
2021/06/14 03:48:18;;;;;;;;;;;;;;;19.88;44.05;101971.34;2069672;28;4256;-35
2021/06/14 03:49:44;;;;;;;;;;;;;;;19.87;44.01;101976.16;2069517;28;4050;-35
2021/06/14 03:51:10;;;;;;;;;;;;;;;19.87;44.14;101973.31;2069518;28;4203;-34
2021/06/14 03:52:37;;;;;;;;;;;;;;;19.88;44.21;101971.34;2069683;28;3919;-34
2021/06/14 03:54:04;;;;;;;;;;;;;;;19.86;44.44;101980.16;2067990;28;5164;-34
2021/06/14 03:55:30;;;;;;;;;;;;;;;19.86;44.41;101985.03;2069546;28;3891;-35
2021/06/14 03:56:57;;;;;;;;;;;;;;;19.86;44.42;101982.19;2071256;28;4031;-35
2021/06/14 03:58:23;;;;;;;;;;;;;;;19.88;44.42;101985.56;2069661;28;3935;-35
2021/06/14 03:59:50;;;;;;;;;;;;;;;19.86;44.63;101977.34;2070126;28;4044;-35
2021/06/14 04:01:17;;;;;;;;;;;;;;;19.86;44.76;101971.66;2069621;28;4232;-37
2021/06/14 04:02:44;;;;;;;;;;;;;;;19.86;44.80;101977.34;2071149;28;4035;-35
2021/06/14 04:05:38;;;;;;;;;;;;;;;19.85;45.08;101977.63;2069180;28;3867;-36
2021/06/14 04:07:05;;;;;;;;;;;;;;;19.85;45.13;101978.50;2069089;28;4024;-35
2021/06/14 04:08:31;;;;;;;;;;;;;;;19.86;45.27;101980.16;2071718;28;3947;-36
2021/06/14 04:09:59;;;;;;;;;;;;;;;19.86;45.28;101990.69;2068480;28;4034;-36
2021/06/14 04:11:26;;;;;;;;;;;;;;;19.85;45.38;101984.19;2066980;28;3866;-37
2021/06/14 04:12:53;;;;;;;;;;;;;;;19.85;45.53;101981.34;2068569;28;3878;-36
2021/06/14 04:14:19;;;;;;;;;;;;;;;19.85;45.65;101977.63;2069511;28;4193;-37
2021/06/14 04:15:45;;;;;;;;;;;;;;;19.85;45.74;101977.63;2070955;28;3952;-35
2021/06/14 04:17:11;;;;;;;;;;;;;;;19.85;45.95;101972.81;2070401;28;4221;-35
2021/06/14 04:18:37;;;;;;;;;;;;;;;19.85;46.08;101978.50;2071879;28;3876;-35
2021/06/14 04:20:05;;;;;;;;;;;;;;;19.85;46.16;101974.78;2067735;28;4042;-37
2021/06/14 04:21:32;;;;;;;;;;;;;;;19.85;46.27;101972.81;2067684;28;4014;-36
2021/06/14 04:22:58;;;;;;;;;;;;;;;19.86;46.23;101985.03;2066493;28;4046;-35
2021/06/14 04:24:25;;;;;;;;;;;;;;;19.86;46.28;101976.50;2068702;28;4006;-38
2021/06/14 04:25:52;;;;;;;;;;;;;;;19.85;46.44;101966.28;2069176;28;3927;-36
2021/06/14 04:27:18;;;;;;;;;;;;;;;19.86;46.33;101973.66;2067155;28;4206;-37
2021/06/14 04:28:44;;;;;;;;;;;;;;;19.86;46.54;101973.66;2072242;28;4086;-34
2021/06/14 04:30:11;;;;;;;;;;;;;;;19.86;46.79;101973.66;2073201;28;4054;-36
2021/06/14 04:31:37;;;;;;;;;;;;;;;19.86;46.91;101974.50;2071131;28;4107;-34
2021/06/14 04:33:04;;;;;;;;;;;;;;;19.87;46.91;101975.31;2071679;28;4014;-38
2021/06/14 04:34:31;;;;;;;;;;;;;;;19.87;47.15;101972.50;2070441;28;4057;-35
2021/06/14 04:35:59;;;;;;;;;;;;;;;19.88;47.15;101965.66;2068861;28;4040;-36
2021/06/14 04:37:26;;;;;;;;;;;;;;;19.88;47.55;101968.50;2068949;28;3932;-36
2021/06/14 04:38:53;;;;;;;;;;;;;;;19.88;47.61;101966.50;2070515;28;3820;-36
2021/06/14 04:40:20;;;;;;;;;;;;;;;19.88;47.62;101960.81;2071601;28;4494;-34
2021/06/14 04:41:47;;;;;;;;;;;;;;;19.89;47.70;101961.66;2072386;28;4023;-35
2021/06/14 04:43:13;;;;;;;;;;;;;;;19.89;47.77;101955.97;2064975;28;4079;-35
2021/06/14 04:44:38;;;;;;;;;;;;;;;19.90;47.80;101952.81;2073625;28;4041;-36
2021/06/14 04:46:05;;;;;;;;;;;;;;;19.90;47.98;101955.63;2072592;28;4222;-35
2021/06/14 04:47:32;;;;;;;;;;;;;;;19.90;48.03;101958.47;2072628;28;4042;-35
2021/06/14 04:48:58;;;;;;;;;;;;;;;19.93;48.11;101954.16;2072752;28;4228;-34
2021/06/14 04:50:25;;;;;;;;;;;;;;;19.92;48.26;101959.00;2072270;28;3935;-35
2021/06/14 04:51:52;;;;;;;;;;;;;;;19.92;48.30;101950.50;2071969;28;3803;-35
2021/06/14 04:53:19;;;;;;;;;;;;;;;19.93;48.36;101952.19;2072113;28;4043;-37
2021/06/14 04:54:45;;;;;;;;;;;;;;;19.92;48.54;101959.00;2071321;28;3903;-37
2021/06/14 04:56:11;;;;;;;;;;;;;;;19.95;48.55;101960.38;2069913;28;4701;-35
2021/06/14 04:57:42;;;;;;;;;;;;;;;19.94;48.24;101964.38;2069956;28;4044;-36
2021/06/14 04:59:09;;;;;;;;;;;;;;;19.96;48.06;101974.28;2069349;28;4064;-35
2021/06/14 05:00:35;;;;;;;;;;;;;;;19.98;47.86;101973.94;2069301;28;3950;-39
2021/06/14 05:02:01;;;;;;;;;;;;;;;20.00;47.84;101977.31;2069999;28;4284;-37
2021/06/14 05:03:28;;;;;;;;;;;;;;;20.01;47.93;101971.31;2071195;28;3887;-36
2021/06/14 05:04:54;;;;;;;;;;;;;;;20.01;47.96;101977.00;2071610;28;4038;-36
2021/06/14 05:06:21;;;;;;;;;;;;;;;20.02;47.76;101972.16;2070723;28;4207;-37
2021/06/14 05:07:47;;;;;;;;;;;;;;;20.03;47.95;101963.31;2071046;28;4101;-37
2021/06/14 05:09:14;;;;;;;;;;;;;;;20.05;47.99;101970.69;2069770;28;4056;-35
2021/06/14 05:10:41;;;;;;;;;;;;;;;20.04;48.10;101969.81;2071682;28;4158;-35
2021/06/14 05:12:08;;;;;;;;;;;;;;;20.04;47.98;101969.81;2069871;28;4015;-36
2021/06/14 05:13:35;;;;;;;;;;;;;;;20.05;48.12;101971.53;2065937;28;3875;-35
2021/06/14 05:15:01;;;;;;;;;;;;;;;20.07;47.80;101974.03;2069755;28;4100;-35
2021/06/14 05:16:28;;;;;;;;;;;;;;;20.07;48.10;101971.19;2069715;28;4070;-36
2021/06/14 05:17:54;;;;;;;;;;;;;;;20.08;48.17;101970.03;2070954;28;4009;-37
2021/06/14 05:19:20;;;;;;;;;;;;;;;20.07;48.29;101971.19;2070772;28;4197;-36
2021/06/14 05:20:47;;;;;;;;;;;;;;;20.06;48.36;101973.19;2071506;28;3835;-36
2021/06/14 05:22:13;;;;;;;;;;;;;;;20.06;48.44;101972.34;2071318;28;4032;-34
2021/06/14 05:23:39;;;;;;;;;;;;;;;20.06;48.40;101976.03;2071730;28;4071;-36
2021/06/14 05:25:06;;;;;;;;;;;;;;;20.06;48.40;101967.50;2070889;28;4022;-36
2021/06/14 05:26:33;;;;;;;;;;;;;;;20.07;48.54;101974.88;2072444;28;3887;-35
2021/06/14 05:28:00;;;;;;;;;;;;;;;20.07;48.48;101974.88;2072178;28;4035;-36
2021/06/14 05:29:27;;;;;;;;;;;;;;;20.08;48.74;101979.41;2072287;28;4059;-35
2021/06/14 05:30:53;;;;;;;;;;;;;;;20.08;48.71;101981.41;2072788;28;4062;-35
2021/06/14 05:32:20;;;;;;;;;;;;;;;20.08;48.61;101975.72;2072258;28;4235;-34
2021/06/14 05:33:46;;;;;;;;;;;;;;;20.09;48.67;101983.06;2071784;28;3912;-35
2021/06/14 05:35:12;;;;;;;;;;;;;;;20.09;48.73;101985.91;2063092;28;4140;-34
2021/06/14 05:36:38;;;;;;;;;;;;;;;20.08;48.76;101985.09;2078355;28;4078;-35
2021/06/14 05:38:05;;;;;;;;;;;;;;;20.09;48.65;101981.06;2071022;28;4082;-35
2021/06/14 05:39:32;;;;;;;;;;;;;;;20.10;48.83;101984.78;2072267;28;3910;-35
2021/06/14 05:40:58;;;;;;;;;;;;;;;20.11;48.62;101994.97;2071372;28;4072;-35
2021/06/14 05:42:24;;;;;;;;;;;;;;;20.11;48.77;101989.28;2071782;28;4452;-35
2021/06/14 05:43:54;;;;;;;;;;;;;;;20.12;48.75;101988.97;2072079;28;3912;-35
2021/06/14 05:45:21;;;;;;;;;;;;;;;20.13;48.73;101989.81;2071138;28;5019;-35
2021/06/14 05:46:48;;;;;;;;;;;;;;;20.13;48.69;101989.81;2071531;28;3990;-35
2021/06/14 05:48:14;;;;;;;;;;;;;;;20.13;48.65;101995.50;2070152;28;4231;-35
2021/06/14 05:49:40;;;;;;;;;;;;;;;20.12;48.75;101994.63;2071110;28;4051;-35
2021/06/14 05:51:07;;;;;;;;;;;;;;;20.13;48.64;101995.50;2072398;28;4061;-35
2021/06/14 05:52:34;;;;;;;;;;;;;;;20.14;48.67;101992.31;2072227;28;3916;-35
2021/06/14 05:54:01;;;;;;;;;;;;;;;20.15;48.64;101993.16;2070932;28;4212;-35
2021/06/14 05:55:28;;;;;;;;;;;;;;;20.14;48.64;101997.19;2070074;28;4052;-35
2021/06/14 05:56:54;;;;;;;;;;;;;;;20.15;48.74;101996.00;2071236;28;4044;-35
2021/06/14 05:58:21;;;;;;;;;;;;;;;20.16;48.80;102000.53;2070656;28;4528;-35
2021/06/14 05:59:47;;;;;;;;;;;;;;;20.16;48.57;102001.38;2072037;28;3870;-35
2021/06/14 06:01:14;;;;;;;;;;;;;;;20.18;48.48;102001.91;2070739;28;4047;-35
2021/06/14 06:02:40;;;;;;;;;;;;;;;20.19;48.55;101997.06;2071283;28;3777;-35
2021/06/14 06:04:06;;;;;;;;;;;;;;;20.20;48.54;101999.56;2070402;28;4227;-35
2021/06/14 06:05:33;;;;;;;;;;;;;;;20.21;48.56;102006.13;2071123;28;4076;-35
2021/06/14 06:07:00;;;;;;;;;;;;;;;20.22;48.48;102004.94;2071407;28;4414;-35
2021/06/14 06:08:26;;;;;;;;;;;;;;;20.22;48.61;102004.94;2071951;28;3903;-35
2021/06/14 06:09:53;;;;;;;;;;;;;;;20.22;48.62;102002.09;2071885;28;4032;-34
2021/06/14 06:11:19;;;;;;;;;;;;;;;20.22;48.63;101996.41;2071656;28;4219;-35
2021/06/14 06:12:46;;;;;;;;;;;;;;;20.22;48.52;101999.25;2071312;28;4076;-35
2021/06/14 06:14:13;;;;;;;;;;;;;;;20.22;48.62;102000.09;2071237;28;4205;-35
2021/06/14 06:15:40;;;;;;;;;;;;;;;20.23;48.47;101992.41;2068754;28;3931;-37
2021/06/14 06:17:07;;;;;;;;;;;;;;;20.23;48.64;101993.28;2066742;28;5418;-35
2021/06/14 06:18:34;;;;;;;;;;;;;;;20.25;48.53;101998.63;2068019;28;3894;-35
2021/06/14 06:20:02;;;;;;;;;;;;;;;20.25;48.33;101988.09;2069828;28;4106;-36
2021/06/14 06:21:29;;;;;;;;;;;;;;;20.27;48.42;101984.94;2070988;28;4074;-37
2021/06/14 06:22:55;;;;;;;;;;;;;;;20.26;48.45;101980.41;2066590;28;3868;-35
2021/06/14 06:24:21;;;;;;;;;;;;;;;20.28;48.48;101986.59;2070383;28;5113;-37
2021/06/14 06:25:48;;;;;;;;;;;;;;;20.30;48.50;101983.47;2070847;28;3885;-36
2021/06/14 06:27:15;;;;;;;;;;;;;;;20.30;48.47;101981.44;2071889;28;4159;-39
2021/06/14 06:28:41;;;;;;;;;;;;;;;20.31;48.41;101982.28;2071492;28;3898;-35
2021/06/14 06:30:08;;;;;;;;;;;;;;;20.31;48.40;101980.28;2069173;28;4050;-35
2021/06/14 06:31:34;;;;;;;;;;;;;;;20.32;48.53;101981.13;2071081;28;4079;-36
2021/06/14 06:33:02;;;;;;;;;;;;;;;20.33;48.35;101979.97;2070711;28;4078;-36
2021/06/14 06:34:29;;;;;;;;;;;;;;;20.33;48.62;101975.13;2063486;28;3904;-36
2021/06/14 06:35:56;;;;;;;;;;;;;;;20.33;48.36;101977.97;2078219;28;3904;-35
2021/06/14 06:37:22;;;;;;;;;;;;;;;20.34;48.36;101973.97;2068860;28;4036;-35
2021/06/14 06:38:49;;;;;;;;;;;;;;;20.34;48.38;101973.97;2066516;28;3911;-35
2021/06/14 06:40:16;;;;;;;;;;;;;;;20.36;48.22;101982.19;2068619;28;4236;-35
2021/06/14 06:41:43;;;;;;;;;;;;;;;20.36;48.32;101974.47;2070462;28;4102;-35
2021/06/14 06:43:10;;;;;;;;;;;;;;;20.36;48.14;101977.31;2068729;28;4064;-35
2021/06/14 06:44:38;;;;;;;;;;;;;;;20.38;48.47;101979.88;2070667;28;4053;-35
2021/06/14 06:46:05;;;;;;;;;;;;;;;20.38;48.28;101979.88;2070533;28;4085;-35
2021/06/14 06:47:31;;;;;;;;;;;;;;;20.39;48.29;101973.00;2071163;28;4073;-35
2021/06/14 06:48:58;;;;;;;;;;;;;;;20.40;48.31;101974.66;2070706;28;4229;-35
2021/06/14 06:50:25;;;;;;;;;;;;;;;20.40;48.21;101972.69;2071930;28;3890;-35
2021/06/14 06:51:51;;;;;;;;;;;;;;;20.40;48.23;101978.38;2071974;28;3902;-35
2021/06/14 06:53:18;;;;;;;;;;;;;;;20.41;48.14;101971.53;2063734;28;4222;-35
2021/06/14 06:54:45;;;;;;;;;;;;;;;20.43;48.22;101976.91;2071335;28;3934;-35
2021/06/14 06:56:12;;;;;;;;;;;;;;;20.43;47.96;101977.72;2067406;28;4064;-35
2021/06/14 06:57:39;;;;;;;;;;;;;;;20.43;47.96;101968.38;2071356;28;4112;-35
2021/06/14 06:59:06;;;;;;;;;;;;;;;20.44;47.95;101972.88;2068120;28;4051;-35
2021/06/14 07:00:33;;;;;;;;;;;;;;;20.44;47.91;101968.03;2070880;28;4080;-35
2021/06/14 07:02:00;;;;;;;;;;;;;;;20.45;47.84;101963.19;2068836;28;4209;-35
2021/06/14 07:03:27;;;;;;;;;;;;;;;20.46;47.96;101964.88;2061531;28;4162;-35
2021/06/14 07:04:54;;;;;;;;;;;;;;;20.46;47.71;101964.88;2062213;28;3867;-34
2021/06/14 07:06:20;;;;;;;;;;;;;;;20.47;47.87;101963.72;2069418;28;4227;-35
2021/06/14 07:07:46;;;;;;;;;;;;;;;20.46;47.92;101960.03;2070302;28;4156;-35
2021/06/14 07:09:13;;;;;;;;;;;;;;;20.47;47.77;101953.19;2068252;28;4038;-35
2021/06/14 07:10:40;;;;;;;;;;;;;;;20.48;47.74;101956.84;2070937;28;3957;-35
2021/06/14 07:12:07;;;;;;;;;;;;;;;20.49;47.74;101958.56;2070627;28;4084;-35
2021/06/14 07:13:33;;;;;;;;;;;;;;;20.50;47.63;101946.00;2070510;28;3877;-35
2021/06/14 07:15:01;;;;;;;;;;;;;;;20.51;47.73;101946.84;2069445;28;4246;-35
2021/06/14 07:16:28;;;;;;;;;;;;;;;20.52;47.62;101942.84;2071058;28;3911;-35
2021/06/14 07:17:55;;;;;;;;;;;;;;;20.53;47.69;101944.53;2071129;28;3881;-35
2021/06/14 07:19:21;;;;;;;;;;;;;;;20.53;47.69;101947.38;2071025;28;4064;-35
2021/06/14 07:20:48;;;;;;;;;;;;;;;20.54;47.71;101946.22;2068397;28;3927;-35
2021/06/14 07:22:15;;;;;;;;;;;;;;;20.53;47.66;101948.22;2065244;28;4194;-35
2021/06/14 07:23:42;;;;;;;;;;;;;;;20.55;47.71;101950.78;2070302;28;4045;-35
2021/06/14 07:25:08;;;;;;;;;;;;;;;20.55;47.61;101950.78;2061531;28;4240;-35
2021/06/14 07:26:36;;;;;;;;;;;;;;;20.56;47.83;101949.59;2063972;28;4169;-35
2021/06/14 07:28:02;;;;;;;;;;;;;;;20.56;48.15;101956.13;2068266;28;4169;-34
2021/06/14 07:29:30;;;;;;;;;;;;;;;20.58;47.88;101961.50;2067513;28;4056;-34
2021/06/14 07:30:56;;;;;;;;;;;;;;;;;;2069545;28;3873;-35
2021/06/14 07:32:22;;;;;;;;;;;;;;;20.59;47.82;101960.31;2071450;28;4019;-35
2021/06/14 07:33:50;;;;;;;;;;;;;;;20.59;47.83;101952.66;2069123;28;3929;-35